Página principal
METAR-TAF:

METAR-TAF

Aeroportos :

Andijon, Uzbequistão

latitude: 40-43-40N, longitude: 072-17-38E, altura: 462 m

Observação actual do tempo

O boletim foi feito há 50 minutos, às 06:00 UTC
Vento 2 kt de nordeste
Temperatura -1°C
Humidade 93%
Pressão 1029 hPa
Visibilidade: 0650 m
Encobertoa uma altura de 500 ft
nevoeiro gelado

METAR: UTFA 230600Z 04002KT 0650 FZFG OVC005 M01/M02 Q1029 R88/19//60 RMK BASE530

Hora: 11:50 (06:50 UTC)

Previsão

O boletim foi feito há 50 minutos, às 06:00 UTC
Previsão válida de 23 às 07 UTC a 23 às 16 UTC
Vento 10 kt de oes-sudoeste
Visibilidade: 1100 m
Nuvens fragmentadasa uma altura de 400 ft
neblina
Temporariamente
de 23 às 07 UTC a 23 às 16 UTC
Vento 2 kt com direcção variável
Visibilidade: 0200 m
a uma altura de 100 ft
nevoeiro gelado

TAF: UTFA 230600Z 2307/2316 24010KT 1100 BR BKN004 TEMPO 2307/2316 VRB02KT 0200 FZFG VV001

Observações e previsões do tempo de mais de 4000 aeroportos (mensagens METAR e TAF).

As estações disponíveis são os pontos amarelos e vermelhos sobre o mapa.

Mova o rato sobre o mapa para ver o nome da estação.

Depois clique no ponto para visualizar as observações e previsões meteorológicas.

Para alterar o mapa : clique nos botões verdes com uma cruz preta para aumentar o zoom; no botão verde com uma pitada de zoom; ou nas setas verdes para mapas adjacentes.


METAR-TAF: